sensor_id;sensor_type;location;lat;lon;timestamp;temperature;humidity
7566;DHT22;3824;48.010;7.832;2022-08-19T00:01:46;17.80;99.90
7566;DHT22;3824;48.010;7.832;2022-08-19T00:04:15;17.70;99.90
7566;DHT22;3824;48.010;7.832;2022-08-19T00:06:44;17.70;99.90
7566;DHT22;3824;48.010;7.832;2022-08-19T00:09:14;17.70;99.90
7566;DHT22;3824;48.010;7.832;2022-08-19T00:11:43;17.80;99.90
7566;DHT22;3824;48.010;7.832;2022-08-19T00:14:13;17.70;99.90
7566;DHT22;3824;48.010;7.832;2022-08-19T00:16:43;17.70;99.90
7566;DHT22;3824;48.010;7.832;2022-08-19T00:19:11;17.70;99.90
7566;DHT22;3824;48.010;7.832;2022-08-19T00:21:38;17.60;99.90
7566;DHT22;3824;48.010;7.832;2022-08-19T00:24:06;17.70;99.90
7566;DHT22;3824;48.010;7.832;2022-08-19T00:26:33;17.60;99.90
7566;DHT22;3824;48.010;7.832;2022-08-19T00:29:03;17.60;99.90
7566;DHT22;3824;48.010;7.832;2022-08-19T00:31:30;17.60;99.90
7566;DHT22;3824;48.010;7.832;2022-08-19T00:33:57;17.60;99.90
7566;DHT22;3824;48.010;7.832;2022-08-19T00:36:24;17.60;99.90
7566;DHT22;3824;48.010;7.832;2022-08-19T00:38:51;17.60;99.90
7566;DHT22;3824;48.010;7.832;2022-08-19T00:41:20;17.60;99.90
7566;DHT22;3824;48.010;7.832;2022-08-19T00:44:02;17.60;99.90
7566;DHT22;3824;48.010;7.832;2022-08-19T00:46:30;17.60;99.90
7566;DHT22;3824;48.010;7.832;2022-08-19T00:48:58;17.60;99.90
7566;DHT22;3824;48.010;7.832;2022-08-19T00:51:27;17.60;99.90
7566;DHT22;3824;48.010;7.832;2022-08-19T00:53:58;17.60;99.90
7566;DHT22;3824;48.010;7.832;2022-08-19T00:56:26;17.60;99.90
7566;DHT22;3824;48.010;7.832;2022-08-19T00:58:55;17.60;99.90
7566;DHT22;3824;48.010;7.832;2022-08-19T01:01:24;17.70;99.90
7566;DHT22;3824;48.010;7.832;2022-08-19T01:03:51;17.70;99.90
7566;DHT22;3824;48.010;7.832;2022-08-19T01:06:18;17.70;99.90
7566;DHT22;3824;48.010;7.832;2022-08-19T01:08:45;17.70;99.90
7566;DHT22;3824;48.010;7.832;2022-08-19T01:11:12;17.70;99.90
7566;DHT22;3824;48.010;7.832;2022-08-19T01:13:39;17.70;99.90
7566;DHT22;3824;48.010;7.832;2022-08-19T01:16:08;17.70;99.90
7566;DHT22;3824;48.010;7.832;2022-08-19T01:18:40;17.70;99.90
7566;DHT22;3824;48.010;7.832;2022-08-19T01:21:12;17.70;99.90
7566;DHT22;3824;48.010;7.832;2022-08-19T01:23:45;17.60;99.90
7566;DHT22;3824;48.010;7.832;2022-08-19T01:26:15;17.60;99.90
7566;DHT22;3824;48.010;7.832;2022-08-19T01:28:43;17.60;99.90
7566;DHT22;3824;48.010;7.832;2022-08-19T01:31:13;17.60;99.90
7566;DHT22;3824;48.010;7.832;2022-08-19T01:33:41;17.60;99.90
7566;DHT22;3824;48.010;7.832;2022-08-19T01:36:10;17.60;99.90
7566;DHT22;3824;48.010;7.832;2022-08-19T01:38:40;17.60;99.90
7566;DHT22;3824;48.010;7.832;2022-08-19T01:41:09;17.60;99.90
7566;DHT22;3824;48.010;7.832;2022-08-19T01:43:36;17.70;99.90
7566;DHT22;3824;48.010;7.832;2022-08-19T01:46:03;17.70;99.90
7566;DHT22;3824;48.010;7.832;2022-08-19T01:48:34;17.60;99.90
7566;DHT22;3824;48.010;7.832;2022-08-19T01:51:01;17.60;99.90
7566;DHT22;3824;48.010;7.832;2022-08-19T01:53:29;17.60;99.90
7566;DHT22;3824;48.010;7.832;2022-08-19T01:55:56;17.60;99.90
7566;DHT22;3824;48.010;7.832;2022-08-19T01:58:27;17.70;99.90
7566;DHT22;3824;48.010;7.832;2022-08-19T02:00:57;17.60;99.90
7566;DHT22;3824;48.010;7.832;2022-08-19T02:03:24;17.60;99.90
7566;DHT22;3824;48.010;7.832;2022-08-19T02:05:55;17.60;99.90
7566;DHT22;3824;48.010;7.832;2022-08-19T02:08:23;17.60;99.90
7566;DHT22;3824;48.010;7.832;2022-08-19T02:10:50;17.60;99.90
7566;DHT22;3824;48.010;7.832;2022-08-19T02:13:17;17.60;99.90
7566;DHT22;3824;48.010;7.832;2022-08-19T02:15:46;17.60;99.90
7566;DHT22;3824;48.010;7.832;2022-08-19T02:18:13;17.60;99.90
7566;DHT22;3824;48.010;7.832;2022-08-19T02:20:41;17.60;99.90
7566;DHT22;3824;48.010;7.832;2022-08-19T02:23:10;17.60;99.90
7566;DHT22;3824;48.010;7.832;2022-08-19T02:25:38;17.60;99.90
7566;DHT22;3824;48.010;7.832;2022-08-19T02:28:05;17.60;99.90
7566;DHT22;3824;48.010;7.832;2022-08-19T02:30:32;17.60;99.90
7566;DHT22;3824;48.010;7.832;2022-08-19T02:33:01;17.50;99.90
7566;DHT22;3824;48.010;7.832;2022-08-19T02:35:27;17.60;99.90
7566;DHT22;3824;48.010;7.832;2022-08-19T02:37:54;17.50;99.90
7566;DHT22;3824;48.010;7.832;2022-08-19T02:40:38;17.50;99.90
7566;DHT22;3824;48.010;7.832;2022-08-19T02:43:07;17.50;99.90
7566;DHT22;3824;48.010;7.832;2022-08-19T02:45:34;17.50;99.90
7566;DHT22;3824;48.010;7.832;2022-08-19T02:48:04;17.50;99.90
7566;DHT22;3824;48.010;7.832;2022-08-19T02:50:31;17.50;99.90
7566;DHT22;3824;48.010;7.832;2022-08-19T02:52:58;17.50;99.90
7566;DHT22;3824;48.010;7.832;2022-08-19T02:55:25;17.40;99.90
7566;DHT22;3824;48.010;7.832;2022-08-19T02:57:52;17.40;99.90
7566;DHT22;3824;48.010;7.832;2022-08-19T03:00:19;17.40;99.90
7566;DHT22;3824;48.010;7.832;2022-08-19T03:02:46;17.40;99.90
7566;DHT22;3824;48.010;7.832;2022-08-19T03:05:15;17.40;99.90
7566;DHT22;3824;48.010;7.832;2022-08-19T03:07:42;17.40;99.90
7566;DHT22;3824;48.010;7.832;2022-08-19T03:10:09;17.40;99.90
7566;DHT22;3824;48.010;7.832;2022-08-19T03:12:37;17.30;99.90
7566;DHT22;3824;48.010;7.832;2022-08-19T03:15:06;17.30;99.90
7566;DHT22;3824;48.010;7.832;2022-08-19T03:17:33;17.40;99.90
7566;DHT22;3824;48.010;7.832;2022-08-19T03:20:00;17.40;99.90
7566;DHT22;3824;48.010;7.832;2022-08-19T03:22:29;17.40;99.90
7566;DHT22;3824;48.010;7.832;2022-08-19T03:24:56;17.40;99.90
7566;DHT22;3824;48.010;7.832;2022-08-19T03:27:25;17.40;99.90
7566;DHT22;3824;48.010;7.832;2022-08-19T03:29:52;17.40;99.90
7566;DHT22;3824;48.010;7.832;2022-08-19T03:32:19;17.40;99.90
7566;DHT22;3824;48.010;7.832;2022-08-19T03:34:47;17.40;99.90
7566;DHT22;3824;48.010;7.832;2022-08-19T03:37:14;17.40;99.90
7566;DHT22;3824;48.010;7.832;2022-08-19T03:39:43;17.50;99.90
7566;DHT22;3824;48.010;7.832;2022-08-19T03:42:10;17.50;99.90
7566;DHT22;3824;48.010;7.832;2022-08-19T03:44:38;17.50;99.90
7566;DHT22;3824;48.010;7.832;2022-08-19T03:47:05;17.50;99.90
7566;DHT22;3824;48.010;7.832;2022-08-19T03:49:32;17.50;99.90
7566;DHT22;3824;48.010;7.832;2022-08-19T03:52:01;17.50;99.90
7566;DHT22;3824;48.010;7.832;2022-08-19T03:54:28;17.50;99.90
7566;DHT22;3824;48.010;7.832;2022-08-19T03:56:56;17.60;99.90
7566;DHT22;3824;48.010;7.832;2022-08-19T03:59:26;17.60;99.90
7566;DHT22;3824;48.010;7.832;2022-08-19T04:01:54;17.50;99.90
7566;DHT22;3824;48.010;7.832;2022-08-19T04:04:21;17.50;99.90
7566;DHT22;3824;48.010;7.832;2022-08-19T04:06:48;17.60;99.90
7566;DHT22;3824;48.010;7.832;2022-08-19T04:09:17;17.60;99.90
7566;DHT22;3824;48.010;7.832;2022-08-19T04:11:48;17.60;99.90
7566;DHT22;3824;48.010;7.832;2022-08-19T04:14:19;17.60;99.90
7566;DHT22;3824;48.010;7.832;2022-08-19T04:16:47;17.60;99.90
7566;DHT22;3824;48.010;7.832;2022-08-19T04:19:15;17.60;99.90
7566;DHT22;3824;48.010;7.832;2022-08-19T04:21:44;17.60;99.90
7566;DHT22;3824;48.010;7.832;2022-08-19T04:24:12;17.50;99.90
7566;DHT22;3824;48.010;7.832;2022-08-19T04:26:39;17.50;99.90
7566;DHT22;3824;48.010;7.832;2022-08-19T04:29:09;17.40;99.90
7566;DHT22;3824;48.010;7.832;2022-08-19T04:31:39;17.40;99.90
7566;DHT22;3824;48.010;7.832;2022-08-19T04:34:08;17.50;99.90
7566;DHT22;3824;48.010;7.832;2022-08-19T04:36:37;17.50;99.90
7566;DHT22;3824;48.010;7.832;2022-08-19T04:39:08;17.50;99.90
7566;DHT22;3824;48.010;7.832;2022-08-19T04:41:35;17.50;99.90
7566;DHT22;3824;48.010;7.832;2022-08-19T04:44:19;17.50;99.90
7566;DHT22;3824;48.010;7.832;2022-08-19T04:46:49;17.50;99.90
7566;DHT22;3824;48.010;7.832;2022-08-19T04:49:18;17.50;99.90
7566;DHT22;3824;48.010;7.832;2022-08-19T04:51:46;17.40;99.90
7566;DHT22;3824;48.010;7.832;2022-08-19T04:54:14;17.40;99.90
7566;DHT22;3824;48.010;7.832;2022-08-19T04:56:41;17.40;99.90
7566;DHT22;3824;48.010;7.832;2022-08-19T04:59:09;17.40;99.90
7566;DHT22;3824;48.010;7.832;2022-08-19T05:01:37;17.40;99.90
7566;DHT22;3824;48.010;7.832;2022-08-19T05:04:06;17.50;99.90
7566;DHT22;3824;48.010;7.832;2022-08-19T05:06:33;17.60;99.90
7566;DHT22;3824;48.010;7.832;2022-08-19T05:09:01;17.60;99.90
7566;DHT22;3824;48.010;7.832;2022-08-19T05:11:31;17.60;99.90
7566;DHT22;3824;48.010;7.832;2022-08-19T05:13:58;17.70;99.90
7566;DHT22;3824;48.010;7.832;2022-08-19T05:16:26;17.70;99.90
7566;DHT22;3824;48.010;7.832;2022-08-19T05:18:54;17.70;99.90
7566;DHT22;3824;48.010;7.832;2022-08-19T05:21:40;17.70;99.90
7566;DHT22;3824;48.010;7.832;2022-08-19T05:24:25;17.70;99.90
7566;DHT22;3824;48.010;7.832;2022-08-19T05:26:52;17.70;99.90
7566;DHT22;3824;48.010;7.832;2022-08-19T05:29:23;17.70;99.90
7566;DHT22;3824;48.010;7.832;2022-08-19T05:31:50;17.70;99.90
7566;DHT22;3824;48.010;7.832;2022-08-19T05:34:19;17.70;99.90
7566;DHT22;3824;48.010;7.832;2022-08-19T05:36:50;17.70;99.90
7566;DHT22;3824;48.010;7.832;2022-08-19T05:39:23;17.70;99.90
7566;DHT22;3824;48.010;7.832;2022-08-19T05:41:55;17.70;99.90
7566;DHT22;3824;48.010;7.832;2022-08-19T05:44:24;17.70;99.90
7566;DHT22;3824;48.010;7.832;2022-08-19T05:46:51;17.70;99.90
7566;DHT22;3824;48.010;7.832;2022-08-19T05:49:21;17.70;99.90
7566;DHT22;3824;48.010;7.832;2022-08-19T05:51:50;17.70;99.90
7566;DHT22;3824;48.010;7.832;2022-08-19T05:54:17;17.70;99.90
7566;DHT22;3824;48.010;7.832;2022-08-19T05:56:45;17.70;99.90
7566;DHT22;3824;48.010;7.832;2022-08-19T05:59:14;17.80;99.90
7566;DHT22;3824;48.010;7.832;2022-08-19T06:01:43;17.90;99.90
7566;DHT22;3824;48.010;7.832;2022-08-19T06:04:11;17.90;99.90
7566;DHT22;3824;48.010;7.832;2022-08-19T06:06:39;17.90;99.90
7566;DHT22;3824;48.010;7.832;2022-08-19T06:09:07;17.90;99.90
7566;DHT22;3824;48.010;7.832;2022-08-19T06:11:37;17.90;99.90
7566;DHT22;3824;48.010;7.832;2022-08-19T06:14:06;18.00;99.90
7566;DHT22;3824;48.010;7.832;2022-08-19T06:16:34;18.00;99.90
7566;DHT22;3824;48.010;7.832;2022-08-19T06:19:03;18.00;99.90
7566;DHT22;3824;48.010;7.832;2022-08-19T06:21:32;18.10;99.90
7566;DHT22;3824;48.010;7.832;2022-08-19T06:23:59;18.10;99.90
7566;DHT22;3824;48.010;7.832;2022-08-19T06:26:27;18.10;99.90
7566;DHT22;3824;48.010;7.832;2022-08-19T06:28:54;18.10;99.90
7566;DHT22;3824;48.010;7.832;2022-08-19T06:31:24;18.10;99.90
7566;DHT22;3824;48.010;7.832;2022-08-19T06:33:51;18.20;99.90
7566;DHT22;3824;48.010;7.832;2022-08-19T06:36:20;18.20;99.90
7566;DHT22;3824;48.010;7.832;2022-08-19T06:38:52;18.30;99.90
7566;DHT22;3824;48.010;7.832;2022-08-19T06:41:19;18.30;99.90
7566;DHT22;3824;48.010;7.832;2022-08-19T06:43:47;18.30;99.90
7566;DHT22;3824;48.010;7.832;2022-08-19T06:46:16;18.30;99.90
7566;DHT22;3824;48.010;7.832;2022-08-19T06:48:44;18.40;99.90
7566;DHT22;3824;48.010;7.832;2022-08-19T06:51:11;18.40;99.90
7566;DHT22;3824;48.010;7.832;2022-08-19T06:53:40;18.40;99.90
7566;DHT22;3824;48.010;7.832;2022-08-19T06:56:13;18.40;99.90
7566;DHT22;3824;48.010;7.832;2022-08-19T06:58:40;18.40;99.90
7566;DHT22;3824;48.010;7.832;2022-08-19T07:01:09;18.40;99.90
7566;DHT22;3824;48.010;7.832;2022-08-19T07:03:38;18.50;99.90
7566;DHT22;3824;48.010;7.832;2022-08-19T07:06:08;18.40;99.90
7566;DHT22;3824;48.010;7.832;2022-08-19T07:08:36;18.50;99.90
7566;DHT22;3824;48.010;7.832;2022-08-19T07:11:08;18.50;99.90
7566;DHT22;3824;48.010;7.832;2022-08-19T07:13:37;18.60;99.90
7566;DHT22;3824;48.010;7.832;2022-08-19T07:16:05;18.60;99.90
7566;DHT22;3824;48.010;7.832;2022-08-19T07:18:33;18.60;99.90
7566;DHT22;3824;48.010;7.832;2022-08-19T07:21:04;18.70;99.90
7566;DHT22;3824;48.010;7.832;2022-08-19T07:23:32;18.80;99.90
7566;DHT22;3824;48.010;7.832;2022-08-19T07:26:04;18.80;99.90
7566;DHT22;3824;48.010;7.832;2022-08-19T07:28:31;18.80;99.90
7566;DHT22;3824;48.010;7.832;2022-08-19T07:30:58;18.90;99.90
7566;DHT22;3824;48.010;7.832;2022-08-19T07:33:27;18.90;99.90
7566;DHT22;3824;48.010;7.832;2022-08-19T07:35:56;19.00;99.90
7566;DHT22;3824;48.010;7.832;2022-08-19T07:38:24;19.00;99.90
7566;DHT22;3824;48.010;7.832;2022-08-19T07:40:51;19.10;99.90
7566;DHT22;3824;48.010;7.832;2022-08-19T07:43:17;19.20;99.90
7566;DHT22;3824;48.010;7.832;2022-08-19T07:45:51;19.30;99.90
7566;DHT22;3824;48.010;7.832;2022-08-19T07:48:18;19.40;99.90
7566;DHT22;3824;48.010;7.832;2022-08-19T07:50:48;19.40;99.90
7566;DHT22;3824;48.010;7.832;2022-08-19T07:53:17;19.40;99.90
7566;DHT22;3824;48.010;7.832;2022-08-19T07:55:43;19.40;99.90
7566;DHT22;3824;48.010;7.832;2022-08-19T07:58:12;19.40;99.90
7566;DHT22;3824;48.010;7.832;2022-08-19T08:00:41;19.30;99.90
7566;DHT22;3824;48.010;7.832;2022-08-19T08:03:08;19.30;99.90
7566;DHT22;3824;48.010;7.832;2022-08-19T08:05:35;19.30;99.90
7566;DHT22;3824;48.010;7.832;2022-08-19T08:08:20;19.30;99.90
7566;DHT22;3824;48.010;7.832;2022-08-19T08:11:05;19.30;99.90
7566;DHT22;3824;48.010;7.832;2022-08-19T08:13:32;19.30;99.90
7566;DHT22;3824;48.010;7.832;2022-08-19T08:16:01;19.30;99.90
7566;DHT22;3824;48.010;7.832;2022-08-19T08:18:28;19.30;99.90
7566;DHT22;3824;48.010;7.832;2022-08-19T08:20:55;19.20;99.90
7566;DHT22;3824;48.010;7.832;2022-08-19T08:23:25;19.30;99.90
7566;DHT22;3824;48.010;7.832;2022-08-19T08:25:53;19.30;99.90
7566;DHT22;3824;48.010;7.832;2022-08-19T08:28:21;19.30;99.90
7566;DHT22;3824;48.010;7.832;2022-08-19T08:30:50;19.20;99.90
7566;DHT22;3824;48.010;7.832;2022-08-19T08:33:18;19.20;99.90
7566;DHT22;3824;48.010;7.832;2022-08-19T08:35:47;19.40;99.90
7566;DHT22;3824;48.010;7.832;2022-08-19T08:38:14;19.20;99.90
7566;DHT22;3824;48.010;7.832;2022-08-19T08:40:45;19.10;99.90
7566;DHT22;3824;48.010;7.832;2022-08-19T08:43:28;19.10;99.90
7566;DHT22;3824;48.010;7.832;2022-08-19T08:46:01;19.10;99.90
7566;DHT22;3824;48.010;7.832;2022-08-19T08:48:37;19.10;99.90
7566;DHT22;3824;48.010;7.832;2022-08-19T08:51:09;19.20;99.90
7566;DHT22;3824;48.010;7.832;2022-08-19T08:53:37;19.40;99.90
7566;DHT22;3824;48.010;7.832;2022-08-19T08:56:07;19.50;99.90
7566;DHT22;3824;48.010;7.832;2022-08-19T08:58:46;19.60;99.90
7566;DHT22;3824;48.010;7.832;2022-08-19T09:01:14;19.60;99.90
7566;DHT22;3824;48.010;7.832;2022-08-19T09:03:43;19.50;99.90
7566;DHT22;3824;48.010;7.832;2022-08-19T09:06:14;19.50;99.90
7566;DHT22;3824;48.010;7.832;2022-08-19T09:08:49;19.40;99.90
7566;DHT22;3824;48.010;7.832;2022-08-19T09:11:24;19.40;99.90
7566;DHT22;3824;48.010;7.832;2022-08-19T09:14:05;19.40;99.90
7566;DHT22;3824;48.010;7.832;2022-08-19T09:16:36;19.30;99.90
7566;DHT22;3824;48.010;7.832;2022-08-19T09:19:06;19.40;99.90
7566;DHT22;3824;48.010;7.832;2022-08-19T09:21:34;19.40;99.90
7566;DHT22;3824;48.010;7.832;2022-08-19T09:24:02;19.40;99.90
7566;DHT22;3824;48.010;7.832;2022-08-19T09:26:31;19.50;99.90
7566;DHT22;3824;48.010;7.832;2022-08-19T09:28:59;19.50;99.90
7566;DHT22;3824;48.010;7.832;2022-08-19T09:31:29;19.40;99.90
7566;DHT22;3824;48.010;7.832;2022-08-19T09:33:57;19.20;99.90
7566;DHT22;3824;48.010;7.832;2022-08-19T09:36:27;19.20;99.90
7566;DHT22;3824;48.010;7.832;2022-08-19T09:38:58;19.20;99.90
7566;DHT22;3824;48.010;7.832;2022-08-19T09:41:26;19.10;99.90
7566;DHT22;3824;48.010;7.832;2022-08-19T09:43:56;19.10;99.90
7566;DHT22;3824;48.010;7.832;2022-08-19T09:46:24;19.00;99.90
7566;DHT22;3824;48.010;7.832;2022-08-19T09:48:52;19.10;99.90
7566;DHT22;3824;48.010;7.832;2022-08-19T09:51:21;19.10;99.90
7566;DHT22;3824;48.010;7.832;2022-08-19T09:53:50;19.10;99.90
7566;DHT22;3824;48.010;7.832;2022-08-19T09:56:20;19.10;99.90
7566;DHT22;3824;48.010;7.832;2022-08-19T09:58:48;16.20;99.90
7566;DHT22;3824;48.010;7.832;2022-08-19T10:01:19;19.20;99.90
7566;DHT22;3824;48.010;7.832;2022-08-19T10:03:48;19.30;99.90
7566;DHT22;3824;48.010;7.832;2022-08-19T10:06:16;19.50;99.90
7566;DHT22;3824;48.010;7.832;2022-08-19T10:08:44;19.50;99.90
7566;DHT22;3824;48.010;7.832;2022-08-19T10:11:11;19.40;99.90
7566;DHT22;3824;48.010;7.832;2022-08-19T10:13:40;19.50;99.90
7566;DHT22;3824;48.010;7.832;2022-08-19T10:16:08;19.60;99.90
7566;DHT22;3824;48.010;7.832;2022-08-19T10:18:37;19.70;99.90
7566;DHT22;3824;48.010;7.832;2022-08-19T10:21:09;19.60;99.90
7566;DHT22;3824;48.010;7.832;2022-08-19T10:23:37;19.50;99.90
7566;DHT22;3824;48.010;7.832;2022-08-19T10:26:05;19.70;99.90
7566;DHT22;3824;48.010;7.832;2022-08-19T10:28:34;19.70;99.90
7566;DHT22;3824;48.010;7.832;2022-08-19T10:31:06;19.80;99.90
7566;DHT22;3824;48.010;7.832;2022-08-19T10:33:35;19.80;99.90
7566;DHT22;3824;48.010;7.832;2022-08-19T10:36:05;19.80;99.90
7566;DHT22;3824;48.010;7.832;2022-08-19T10:38:32;19.50;99.90
7566;DHT22;3824;48.010;7.832;2022-08-19T10:41:07;19.50;99.90
7566;DHT22;3824;48.010;7.832;2022-08-19T10:43:34;19.50;99.90
7566;DHT22;3824;48.010;7.832;2022-08-19T10:46:04;19.60;99.90
7566;DHT22;3824;48.010;7.832;2022-08-19T10:48:31;19.70;99.90
7566;DHT22;3824;48.010;7.832;2022-08-19T10:50:59;19.70;99.90
7566;DHT22;3824;48.010;7.832;2022-08-19T10:53:44;19.80;99.90
7566;DHT22;3824;48.010;7.832;2022-08-19T10:56:11;19.90;99.90
7566;DHT22;3824;48.010;7.832;2022-08-19T10:58:56;20.00;99.90
7566;DHT22;3824;48.010;7.832;2022-08-19T11:01:24;20.00;99.90
7566;DHT22;3824;48.010;7.832;2022-08-19T11:03:50;20.00;99.90
7566;DHT22;3824;48.010;7.832;2022-08-19T11:06:18;20.00;99.90
7566;DHT22;3824;48.010;7.832;2022-08-19T11:08:47;20.10;99.90
7566;DHT22;3824;48.010;7.832;2022-08-19T11:11:14;20.30;99.90
7566;DHT22;3824;48.010;7.832;2022-08-19T11:13:41;20.50;99.90
7566;DHT22;3824;48.010;7.832;2022-08-19T11:16:12;20.50;99.90
7566;DHT22;3824;48.010;7.832;2022-08-19T11:18:42;20.40;99.90
7566;DHT22;3824;48.010;7.832;2022-08-19T11:21:11;20.60;99.90
7566;DHT22;3824;48.010;7.832;2022-08-19T11:23:39;20.80;99.90
7566;DHT22;3824;48.010;7.832;2022-08-19T11:26:07;20.80;99.90
7566;DHT22;3824;48.010;7.832;2022-08-19T11:28:35;20.80;99.90
7566;DHT22;3824;48.010;7.832;2022-08-19T11:31:02;20.80;99.90
7566;DHT22;3824;48.010;7.832;2022-08-19T11:33:29;20.80;99.90
7566;DHT22;3824;48.010;7.832;2022-08-19T11:35:57;20.70;99.90
7566;DHT22;3824;48.010;7.832;2022-08-19T11:38:26;20.50;99.90
7566;DHT22;3824;48.010;7.832;2022-08-19T11:40:57;23.60;99.90
7566;DHT22;3824;48.010;7.832;2022-08-19T11:43:27;20.60;99.90
7566;DHT22;3824;48.010;7.832;2022-08-19T11:45:54;20.60;99.90
7566;DHT22;3824;48.010;7.832;2022-08-19T11:48:21;20.60;99.90
7566;DHT22;3824;48.010;7.832;2022-08-19T11:50:49;20.30;99.90
7566;DHT22;3824;48.010;7.832;2022-08-19T11:53:16;20.20;99.90
7566;DHT22;3824;48.010;7.832;2022-08-19T11:55:44;20.40;99.90
7566;DHT22;3824;48.010;7.832;2022-08-19T11:58:12;20.40;99.90
7566;DHT22;3824;48.010;7.832;2022-08-19T12:00:41;20.40;99.90
7566;DHT22;3824;48.010;7.832;2022-08-19T12:03:10;20.20;99.90
7566;DHT22;3824;48.010;7.832;2022-08-19T12:05:38;20.10;99.90
7566;DHT22;3824;48.010;7.832;2022-08-19T12:08:06;20.00;99.90
7566;DHT22;3824;48.010;7.832;2022-08-19T12:10:34;19.90;99.90
7566;DHT22;3824;48.010;7.832;2022-08-19T12:13:01;19.90;99.90
7566;DHT22;3824;48.010;7.832;2022-08-19T12:15:28;19.90;99.90
7566;DHT22;3824;48.010;7.832;2022-08-19T12:17:57;19.90;99.90
7566;DHT22;3824;48.010;7.832;2022-08-19T12:20:24;19.80;99.90
7566;DHT22;3824;48.010;7.832;2022-08-19T12:22:52;19.70;99.90
7566;DHT22;3824;48.010;7.832;2022-08-19T12:25:19;19.70;99.90
7566;DHT22;3824;48.010;7.832;2022-08-19T12:27:46;19.70;99.90
7566;DHT22;3824;48.010;7.832;2022-08-19T12:30:15;19.50;99.90
7566;DHT22;3824;48.010;7.832;2022-08-19T12:32:42;19.40;99.90
7566;DHT22;3824;48.010;7.832;2022-08-19T12:35:10;19.30;99.90
7566;DHT22;3824;48.010;7.832;2022-08-19T12:37:38;19.30;99.90
7566;DHT22;3824;48.010;7.832;2022-08-19T12:40:11;19.40;99.90
7566;DHT22;3824;48.010;7.832;2022-08-19T12:42:38;19.40;99.90
7566;DHT22;3824;48.010;7.832;2022-08-19T12:45:07;19.50;99.90
7566;DHT22;3824;48.010;7.832;2022-08-19T12:47:35;19.60;99.90
7566;DHT22;3824;48.010;7.832;2022-08-19T12:50:02;19.60;99.90
7566;DHT22;3824;48.010;7.832;2022-08-19T12:52:36;19.50;99.90
7566;DHT22;3824;48.010;7.832;2022-08-19T12:55:06;19.80;99.90
7566;DHT22;3824;48.010;7.832;2022-08-19T12:57:33;20.20;99.90
7566;DHT22;3824;48.010;7.832;2022-08-19T13:00:05;20.40;99.90
7566;DHT22;3824;48.010;7.832;2022-08-19T13:02:35;20.60;99.90
7566;DHT22;3824;48.010;7.832;2022-08-19T13:05:03;20.50;99.90
7566;DHT22;3824;48.010;7.832;2022-08-19T13:07:32;20.60;99.90
7566;DHT22;3824;48.010;7.832;2022-08-19T13:10:00;20.70;99.90
7566;DHT22;3824;48.010;7.832;2022-08-19T13:12:27;20.70;99.90
7566;DHT22;3824;48.010;7.832;2022-08-19T13:14:55;20.50;99.90
7566;DHT22;3824;48.010;7.832;2022-08-19T13:17:21;20.50;99.90
7566;DHT22;3824;48.010;7.832;2022-08-19T13:19:48;20.60;99.90
7566;DHT22;3824;48.010;7.832;2022-08-19T13:22:15;20.80;99.90
7566;DHT22;3824;48.010;7.832;2022-08-19T13:24:42;20.80;99.90
7566;DHT22;3824;48.010;7.832;2022-08-19T13:27:10;20.80;99.90
7566;DHT22;3824;48.010;7.832;2022-08-19T13:29:39;20.90;99.90
7566;DHT22;3824;48.010;7.832;2022-08-19T13:32:24;20.90;99.90
7566;DHT22;3824;48.010;7.832;2022-08-19T13:35:08;20.90;99.90
7566;DHT22;3824;48.010;7.832;2022-08-19T13:37:35;21.00;99.90
7566;DHT22;3824;48.010;7.832;2022-08-19T13:40:09;21.00;99.90
7566;DHT22;3824;48.010;7.832;2022-08-19T13:42:41;21.10;99.90
7566;DHT22;3824;48.010;7.832;2022-08-19T13:45:09;21.10;99.90
7566;DHT22;3824;48.010;7.832;2022-08-19T13:47:37;21.10;99.90
7566;DHT22;3824;48.010;7.832;2022-08-19T13:50:08;21.20;99.90
7566;DHT22;3824;48.010;7.832;2022-08-19T13:52:36;21.50;99.90
7566;DHT22;3824;48.010;7.832;2022-08-19T13:55:04;21.70;99.90
7566;DHT22;3824;48.010;7.832;2022-08-19T13:57:31;21.90;99.90
7566;DHT22;3824;48.010;7.832;2022-08-19T13:59:59;22.00;99.90
7566;DHT22;3824;48.010;7.832;2022-08-19T14:02:26;22.10;99.90
7566;DHT22;3824;48.010;7.832;2022-08-19T14:04:53;22.20;99.90
7566;DHT22;3824;48.010;7.832;2022-08-19T14:07:20;22.60;99.90
7566;DHT22;3824;48.010;7.832;2022-08-19T14:09:49;22.90;99.90
7566;DHT22;3824;48.010;7.832;2022-08-19T14:12:19;23.40;99.90
7566;DHT22;3824;48.010;7.832;2022-08-19T14:14:46;23.60;99.90
7566;DHT22;3824;48.010;7.832;2022-08-19T14:17:14;23.90;99.90
7566;DHT22;3824;48.010;7.832;2022-08-19T14:19:42;24.10;99.90
7566;DHT22;3824;48.010;7.832;2022-08-19T14:22:09;24.20;99.90
7566;DHT22;3824;48.010;7.832;2022-08-19T14:24:37;24.20;99.90
7566;DHT22;3824;48.010;7.832;2022-08-19T14:27:04;24.20;99.90
7566;DHT22;3824;48.010;7.832;2022-08-19T14:29:31;24.20;99.90
7566;DHT22;3824;48.010;7.832;2022-08-19T14:31:58;24.20;99.90
7566;DHT22;3824;48.010;7.832;2022-08-19T14:34:26;24.20;99.90
7566;DHT22;3824;48.010;7.832;2022-08-19T14:36:53;24.20;99.90
7566;DHT22;3824;48.010;7.832;2022-08-19T14:39:20;24.10;99.90
7566;DHT22;3824;48.010;7.832;2022-08-19T14:41:47;24.00;99.90
7566;DHT22;3824;48.010;7.832;2022-08-19T14:44:14;23.80;99.90
7566;DHT22;3824;48.010;7.832;2022-08-19T14:46:41;23.70;99.90
7566;DHT22;3824;48.010;7.832;2022-08-19T14:49:10;23.60;99.90
7566;DHT22;3824;48.010;7.832;2022-08-19T14:51:38;23.50;99.90
7566;DHT22;3824;48.010;7.832;2022-08-19T14:54:05;23.50;99.90
7566;DHT22;3824;48.010;7.832;2022-08-19T14:56:32;23.60;99.90
7566;DHT22;3824;48.010;7.832;2022-08-19T14:58:59;23.60;99.90
7566;DHT22;3824;48.010;7.832;2022-08-19T15:01:26;23.60;99.90
7566;DHT22;3824;48.010;7.832;2022-08-19T15:03:54;23.70;99.90
7566;DHT22;3824;48.010;7.832;2022-08-19T15:06:21;23.70;99.90
7566;DHT22;3824;48.010;7.832;2022-08-19T15:08:50;23.80;99.90
7566;DHT22;3824;48.010;7.832;2022-08-19T15:11:21;23.80;99.90
7566;DHT22;3824;48.010;7.832;2022-08-19T15:13:48;23.90;99.90
7566;DHT22;3824;48.010;7.832;2022-08-19T15:16:16;23.90;99.90
7566;DHT22;3824;48.010;7.832;2022-08-19T15:18:44;24.00;99.90
7566;DHT22;3824;48.010;7.832;2022-08-19T15:21:11;24.10;99.90
7566;DHT22;3824;48.010;7.832;2022-08-19T15:23:39;24.10;99.90
7566;DHT22;3824;48.010;7.832;2022-08-19T15:26:07;24.20;99.90
7566;DHT22;3824;48.010;7.832;2022-08-19T15:28:36;24.20;99.90
7566;DHT22;3824;48.010;7.832;2022-08-19T15:31:03;24.20;99.90
7566;DHT22;3824;48.010;7.832;2022-08-19T15:33:31;24.20;99.90
7566;DHT22;3824;48.010;7.832;2022-08-19T15:36:00;24.20;99.90
7566;DHT22;3824;48.010;7.832;2022-08-19T15:38:29;24.30;99.90
7566;DHT22;3824;48.010;7.832;2022-08-19T15:40:55;24.30;99.90
7566;DHT22;3824;48.010;7.832;2022-08-19T15:43:45;24.30;99.90
7566;DHT22;3824;48.010;7.832;2022-08-19T15:46:12;24.40;99.90
7566;DHT22;3824;48.010;7.832;2022-08-19T15:48:43;24.50;99.90
7566;DHT22;3824;48.010;7.832;2022-08-19T15:51:10;24.60;99.90
7566;DHT22;3824;48.010;7.832;2022-08-19T15:53:37;24.70;99.90
7566;DHT22;3824;48.010;7.832;2022-08-19T15:56:05;24.80;99.90
7566;DHT22;3824;48.010;7.832;2022-08-19T15:58:32;24.90;99.90
7566;DHT22;3824;48.010;7.832;2022-08-19T16:01:18;25.00;99.90
7566;DHT22;3824;48.010;7.832;2022-08-19T16:04:03;25.10;99.90
7566;DHT22;3824;48.010;7.832;2022-08-19T16:06:49;25.20;99.90
7566;DHT22;3824;48.010;7.832;2022-08-19T16:09:18;25.30;99.90
7566;DHT22;3824;48.010;7.832;2022-08-19T16:11:46;25.40;99.90
7566;DHT22;3824;48.010;7.832;2022-08-19T16:14:14;25.40;99.90